Airfield :
LOGIN :

Register | Disclaimer

   EN    FR    IT 

 










Legend :    VFR   Marginal VFR   IFR   Intensive IFR   Very Intensive IFR
Visi :
Ceiling :
>= 8 km
>= 3000ft
5 to 8 km
1000 to 3000 ft
1500m to 5 km
500 to 1000 ft
800 to 1500m
200 to 500 ft
< 800m
< 200 ft
Symbols :   Thunderstorms  Fog  Heavy snow  Heavy precipitations  Wind > 20 kt
SIGMETs :     Misc.  Thunderstorms  Icing  Turbulence  Mountain Waves  Volcanic Ashes







- Airport Elevation : 3368 ft


LSGC - Les Eplatures

CURRENT METAR :
  • 261020Z VRB03KT 9999 BKN032 14/07 Q1018

EXPIRED METARs :
  • 260950Z 01005KT 300V050 9999 BKN032 14/06 Q1018
  • 260920Z 36005KT 270V070 9999 BKN030 16/08 Q1018
  • 260850Z 36005KT 300V060 9999 SCT030 14/07 Q1018
  • 260820Z 02004KT 270V070 9999 FEW025 14/10 Q1018
  • 260750Z 06005KT 350V130 9999 FEW020 13/11 Q1018

TAF TAF LSGC
Valid from the 26 at 09:00 until the 26 at 18:00 UTC


260825Z 2609/2618 04005KT 9999 FEW025
PROB30
TEMPO 2612/2618 SHRA SCT035TCU
No reported NOTAMs for that airfield.



MET'MAP, your aeronautical weather chart ! - Copyright ORBIFLY December 2007 - Disclaimer

ORBIFLY MET'MAP TEAM :

Programming & Development : Alexandra Zaïnal
Concept & Development : Baudouin d'Aumeries
Co-Development & Prog : Marc-Olivier Méhu
Technical & hardware support : Manuel Goepfert

Contact : metmap@orbifly.com




SOURCES & CREDITS :

   NOAA